ADDS METAR Data INFO
IDs: Format: Raw Decoded Include TAF

Data at: 0742 UTC 23 Apr 2018

KLRD 230656Z AUTO 15007KT 10SM CLR 22/12 A3003 RMK AO2 SLP172 T02170122
KLRD 230556Z AUTO 10006KT 10SM CLR 21/09 A3003 RMK AO2 SLP172 T02110089 10283 20211 402940172 51009
KLRD 230456Z AUTO 09005KT 10SM CLR 21/09 A3003 RMK AO2 SLP173 T02110089
KLRD 230356Z AUTO 06007KT 10SM CLR 23/08 A3003 RMK AO2 SLP170 T02330083
KLRD 230256Z AUTO 08006KT 10SM CLR 24/09 A3000 RMK AO2 SLP164 T02390089 53009 TSNO
KLRD 230156Z AUTO 06007KT 10SM CLR 26/08 A2999 RMK AO2 SLP159 T02560078
KLRD 230056Z AUTO 04007KT 10SM CLR 27/07 A2998 RMK AO2 SLP156 T02670072
KLRD 222356Z 06006KT 10SM CLR 28/08 A2998 RMK AO2 SLP154 T02780078 10294 20256 55006
KLRD 222256Z 04007KT 10SM CLR 29/08 A2996 RMK AO2 SLP146 T02940083
KLRD 222156Z 04008KT 10SM CLR 29/09 A2996 RMK AO2 SLP148 T02940089
KLRD 222056Z VRB04KT 10SM CLR 28/08 A3000 RMK AO2 SLP158 T02830083 56034
KLRD 221956Z 35009G15KT 10SM CLR 28/08 A3002 RMK AO2 SLP169 T02780083
KLRD 221856Z VRB06G14KT 10SM CLR 27/09 A3005 RMK AO2 SLP179 T02720089
KLRD 221756Z 33009KT 10SM CLR 26/09 A3010 RMK AO2 SLP194 T02560089 10256 20172 58006
KLRD 221656Z 03011G15KT 10SM CLR 23/09 A3011 RMK AO2 SLP198 T02330089
KLRD 221556Z 02010KT 10SM CLR 22/09 A3011 RMK AO2 SLP200 T02170094
KLRD 221456Z 02014KT 10SM CLR 19/09 A3012 RMK AO2 SLP201 T01940094 51022
KLRD 221356Z 03014G20KT 10SM CLR 19/10 A3010 RMK AO2 SLP196 T01890100
KLRD 221256Z 03012KT 10SM CLR 17/10 A3008 RMK AO2 SLP188 T01720100
KLRD 221156Z AUTO 03011KT 10SM CLR 18/12 A3005 RMK AO2 SLP178 T01780117 10222 20178 53023
KLRD 221056Z AUTO 05017KT 10SM CLR 19/11 A3002 RMK AO2 SLP166 T01940106
KLRD 220956Z AUTO 03015KT 10SM CLR 21/17 A2999 RMK AO2 SLP157 T02060172
KLRD 220856Z AUTO 02013KT 10SM FEW017 BKN035 22/19 A2998 RMK AO2 SLP153 T02220194 53014
KLRD 220756Z AUTO 34004KT 9SM CLR 20/18 A2996 RMK AO2 SLP147 T02000178
KLRD 220656Z AUTO 00000KT 10SM CLR 21/18 A2995 RMK AO2 SLP145 T02060178
KLRD 220556Z AUTO 00000KT 10SM CLR 21/17 A2994 RMK AO2 SLP140 T02060172 10289 20206 402940200 50006
KLRD 220456Z AUTO 07005KT 10SM CLR 23/18 A2994 RMK AO2 SLP141 T02280178
KLRD 220356Z AUTO 10003KT 10SM CLR 23/18 A2993 RMK AO2 SLP137 T02330178
KLRD 220256Z AUTO 12004KT 10SM CLR 25/18 A2992 RMK AO2 SLP133 T02500178 53024
KLRD 220156Z AUTO 07006KT 10SM CLR 26/18 A2989 RMK AO2 SLP125 T02610183
KLRD 220056Z AUTO 05006KT 10SM CLR 27/18 A2987 RMK AO2 SLP116 T02720178
KLRD 212356Z 01006KT 10SM CLR 29/18 A2985 RMK AO2 SLP108 T02890178 10294 20250 55007
KLRD 212256Z VRB04KT 10SM CLR 29/18 A2984 RMK AO2 SLP106 T02890178
KLRD 212156Z 03006KT 10SM BKN044 29/18 A2985 RMK AO2 SLP109 T02890183
KLRD 212056Z VRB04KT 10SM FEW041 OVC048 28/18 A2987 RMK AO2 SLP116 T02780183 56020
KLRD 211956Z 31005KT 10SM BKN036 BKN043 28/19 A2989 RMK AO2 SLP122 T02780189